createdAt,value
2022-08-26T00:02:20.501Z,63.87
2022-08-26T00:04:50.117Z,64.93
2022-08-26T00:07:20.670Z,65.47
2022-08-26T00:09:50.007Z,67.19
2022-08-26T00:12:19.235Z,67.69
2022-08-26T00:15:01.033Z,67.14
2022-08-26T00:17:30.294Z,66.33
2022-08-26T00:20:01.796Z,65.57
2022-08-26T00:22:32.891Z,65.36
2022-08-26T00:25:02.137Z,64.87
2022-08-26T00:27:34.262Z,65.66
2022-08-26T00:30:06.929Z,66.54
2022-08-26T00:32:37.435Z,67.98
2022-08-26T00:35:08.013Z,68.82
2022-08-26T00:37:38.418Z,67.35
2022-08-26T00:40:11.476Z,67.03
2022-08-26T00:42:40.454Z,69.61
2022-08-26T00:45:17.249Z,70.24
2022-08-26T00:47:50.070Z,72.16
2022-08-26T00:50:24.514Z,70.21
2022-08-26T00:52:57.446Z,67.70
2022-08-26T00:55:37.920Z,67.07
2022-08-26T00:58:08.689Z,67.59
2022-08-26T01:00:38.349Z,68.03
2022-08-26T01:03:12.619Z,72.19
2022-08-26T01:05:42.330Z,70.96
2022-08-26T01:08:13.750Z,69.78
2022-08-26T01:10:42.765Z,68.94
2022-08-26T01:13:15.572Z,68.68
2022-08-26T01:15:47.792Z,67.07
2022-08-26T01:18:20.449Z,67.52
2022-08-26T01:21:00.029Z,66.54
2022-08-26T01:23:34.016Z,66.98
2022-08-26T01:26:08.953Z,67.39
2022-08-26T01:28:51.753Z,69.17
2022-08-26T01:31:25.612Z,70.81
2022-08-26T01:34:03.586Z,71.79
2022-08-26T01:36:33.609Z,71.40
2022-08-26T01:39:05.857Z,69.35
2022-08-26T01:41:38.204Z,68.92
2022-08-26T01:44:10.954Z,67.59
2022-08-26T01:46:40.445Z,68.05
2022-08-26T01:49:10.343Z,67.52
2022-08-26T01:51:40.266Z,68.12
2022-08-26T01:54:12.075Z,68.97
2022-08-26T01:56:42.117Z,70.68
2022-08-26T01:59:16.392Z,70.44
2022-08-26T02:01:47.062Z,68.85
2022-08-26T02:04:23.374Z,68.61
2022-08-26T02:06:54.185Z,68.89
2022-08-26T02:09:25.924Z,71.14
2022-08-26T02:11:57.083Z,70.57
2022-08-26T02:14:30.425Z,68.95
2022-08-26T02:16:59.973Z,68.38
2022-08-26T02:19:32.932Z,68.05
2022-08-26T02:22:05.343Z,69.38
2022-08-26T02:24:52.577Z,68.94
2022-08-26T02:27:24.906Z,69.16
2022-08-26T02:30:00.757Z,71.87
2022-08-26T02:32:30.710Z,71.95
2022-08-26T02:35:03.209Z,71.68
2022-08-26T02:37:33.981Z,71.12
2022-08-26T02:40:07.351Z,71.22
2022-08-26T02:42:37.934Z,72.60
2022-08-26T02:45:08.064Z,73.50
2022-08-26T02:47:37.875Z,73.00
2022-08-26T02:50:08.240Z,70.29
2022-08-26T02:52:37.556Z,70.18
2022-08-26T02:55:09.590Z,69.63
2022-08-26T02:57:38.122Z,70.21
2022-08-26T03:00:11.422Z,70.52
2022-08-26T03:02:43.169Z,70.68
2022-08-26T03:05:12.826Z,71.57
2022-08-26T03:07:42.378Z,71.06
2022-08-26T03:10:15.057Z,72.73
2022-08-26T03:12:48.104Z,72.41
2022-08-26T03:15:18.522Z,75.17
2022-08-26T03:17:50.251Z,76.83
2022-08-26T03:20:20.438Z,75.37
2022-08-26T03:22:51.687Z,73.81
2022-08-26T03:25:23.066Z,74.95
2022-08-26T03:27:53.486Z,74.34
2022-08-26T03:30:45.440Z,73.96
2022-08-26T03:33:15.734Z,76.20
2022-08-26T03:35:47.640Z,78.67
2022-08-26T03:38:21.091Z,81.05
2022-08-26T03:40:52.983Z,80.63
2022-08-26T03:43:26.724Z,78.56
2022-08-26T03:45:57.565Z,76.62
2022-08-26T03:48:25.411Z,77.25
2022-08-26T03:50:53.288Z,77.67
2022-08-26T03:53:21.339Z,78.54
2022-08-26T03:55:51.763Z,77.71
2022-08-26T03:58:20.486Z,77.94
2022-08-26T04:00:49.017Z,79.29
2022-08-26T04:03:38.446Z,84.02
2022-08-26T04:06:07.037Z,83.96
2022-08-26T04:08:34.903Z,84.79
2022-08-26T04:11:04.300Z,82.92
2022-08-26T04:13:32.939Z,83.89
2022-08-26T04:16:00.861Z,82.23
2022-08-26T04:18:37.017Z,79.17
2022-08-26T04:21:08.076Z,78.43
2022-08-26T04:23:47.305Z,77.71
2022-08-26T04:26:17.477Z,78.56
2022-08-26T04:28:45.445Z,79.31
2022-08-26T04:31:14.645Z,81.05
2022-08-26T04:33:43.772Z,82.04
2022-08-26T04:36:11.955Z,84.03
2022-08-26T04:38:40.148Z,83.93
2022-08-26T04:41:15.546Z,81.61
2022-08-26T04:43:46.917Z,83.44
2022-08-26T04:46:17.344Z,82.49
2022-08-26T04:48:45.801Z,80.87
2022-08-26T04:51:13.716Z,79.52
2022-08-26T04:53:41.685Z,78.84
2022-08-26T04:56:09.882Z,80.92
2022-08-26T04:58:38.244Z,82.28
2022-08-26T05:01:08.346Z,78.59
2022-08-26T05:03:37.366Z,76.84
2022-08-26T05:06:09.029Z,76.86
2022-08-26T05:08:39.773Z,77.30
2022-08-26T05:11:09.798Z,78.21
2022-08-26T05:13:39.206Z,76.84
2022-08-26T05:16:11.667Z,76.58
2022-08-26T05:18:44.668Z,75.33
2022-08-26T05:21:19.959Z,75.53
2022-08-26T05:23:49.039Z,76.41
2022-08-26T05:26:17.374Z,75.34
2022-08-26T05:28:51.126Z,74.84
2022-08-26T05:31:31.207Z,74.05
2022-08-26T05:33:59.913Z,73.81
2022-08-26T05:36:36.180Z,73.74
2022-08-26T05:39:10.416Z,74.28
2022-08-26T05:41:40.974Z,73.51
2022-08-26T05:44:14.091Z,73.77
2022-08-26T05:46:44.664Z,73.80
2022-08-26T05:49:13.837Z,72.36
2022-08-26T05:51:47.582Z,72.50
2022-08-26T05:54:22.003Z,72.21
2022-08-26T05:56:50.859Z,71.22
2022-08-26T05:59:24.514Z,71.34
2022-08-26T06:01:55.577Z,70.97
2022-08-26T06:04:27.569Z,70.71
2022-08-26T06:06:56.447Z,70.68
2022-08-26T06:09:24.517Z,71.04
2022-08-26T06:11:52.756Z,70.53
2022-08-26T06:14:21.592Z,69.96
2022-08-26T06:16:49.769Z,69.67
2022-08-26T06:19:20.028Z,69.82
2022-08-26T06:21:54.059Z,69.59
2022-08-26T06:24:40.127Z,69.98
2022-08-26T06:27:11.305Z,68.96
2022-08-26T06:29:39.367Z,68.71
2022-08-26T06:32:07.433Z,68.48
2022-08-26T06:34:38.530Z,69.13
2022-08-26T06:37:08.872Z,68.54
2022-08-26T06:39:40.195Z,68.84
2022-08-26T06:42:09.359Z,68.59
2022-08-26T06:44:39.088Z,68.26
2022-08-26T06:47:09.172Z,67.81
2022-08-26T06:49:38.460Z,67.18
2022-08-26T06:52:07.827Z,67.26
2022-08-26T06:54:37.036Z,66.81
2022-08-26T06:57:08.973Z,66.77
2022-08-26T06:59:36.931Z,66.01
2022-08-26T07:02:06.113Z,65.58
2022-08-26T07:04:36.228Z,65.88
2022-08-26T07:07:05.482Z,65.56
2022-08-26T07:09:35.289Z,65.04
2022-08-26T07:12:06.819Z,65.19
2022-08-26T07:14:35.875Z,65.64
2022-08-26T07:17:03.755Z,65.08
2022-08-26T07:19:31.943Z,64.95
2022-08-26T07:22:01.875Z,63.85
2022-08-26T07:24:32.180Z,63.25
2022-08-26T07:27:02.808Z,63.29
2022-08-26T07:29:31.257Z,62.84
2022-08-26T07:31:59.670Z,62.21
2022-08-26T07:34:28.182Z,62.73
2022-08-26T07:36:57.071Z,63.98
2022-08-26T07:39:28.675Z,64.00
2022-08-26T07:42:01.677Z,62.51
2022-08-26T07:44:36.308Z,61.79
2022-08-26T07:47:10.558Z,61.45
2022-08-26T07:49:52.967Z,62.13
2022-08-26T07:52:26.159Z,61.02
2022-08-26T07:54:54.850Z,61.45
2022-08-26T07:57:24.423Z,61.50
2022-08-26T07:59:55.118Z,61.02
2022-08-26T08:02:23.994Z,60.57
2022-08-26T08:04:52.738Z,61.67
2022-08-26T08:07:21.375Z,60.63
2022-08-26T08:10:11.469Z,59.24
2022-08-26T08:12:42.397Z,59.46
2022-08-26T08:15:13.277Z,59.51
2022-08-26T08:17:47.140Z,59.15
2022-08-26T08:20:23.078Z,59.26
2022-08-26T08:22:54.141Z,57.98
2022-08-26T08:25:23.202Z,58.69
2022-08-26T08:27:52.613Z,58.35
2022-08-26T08:30:23.176Z,57.44
2022-08-26T08:32:52.174Z,57.19
2022-08-26T08:35:23.601Z,57.39
2022-08-26T08:37:54.419Z,56.74
2022-08-26T08:40:27.655Z,56.95
2022-08-26T08:43:03.793Z,57.06
2022-08-26T08:45:37.875Z,56.15
2022-08-26T08:48:21.341Z,56.24
2022-08-26T08:51:04.275Z,55.59
2022-08-26T08:53:36.410Z,56.44
2022-08-26T08:56:13.163Z,56.91
2022-08-26T08:58:53.565Z,54.51
2022-08-26T09:01:31.446Z,53.70
2022-08-26T09:04:21.328Z,52.47
2022-08-26T09:06:53.868Z,52.14
2022-08-26T09:09:25.034Z,49.22
2022-08-26T09:11:54.320Z,48.51
2022-08-26T09:14:24.054Z,46.84
2022-08-26T09:17:04.961Z,47.16
2022-08-26T09:19:42.463Z,46.25
2022-08-26T09:22:26.873Z,45.20
2022-08-26T09:24:55.210Z,42.75
2022-08-26T09:27:39.044Z,41.44
2022-08-26T09:30:11.543Z,41.67
2022-08-26T09:32:40.195Z,42.24
2022-08-26T09:35:24.552Z,41.46
2022-08-26T09:37:53.007Z,41.05
2022-08-26T09:40:27.572Z,41.54
2022-08-26T09:43:09.801Z,40.03
2022-08-26T09:45:49.352Z,39.06
2022-08-26T09:48:28.319Z,39.43
2022-08-26T09:51:00.574Z,38.57
2022-08-26T09:53:31.557Z,40.61
2022-08-26T09:56:16.907Z,40.66
2022-08-26T09:58:48.631Z,38.13
2022-08-26T10:01:30.076Z,39.06
2022-08-26T10:04:07.639Z,37.42
2022-08-26T10:06:39.897Z,38.91
2022-08-26T10:09:37.269Z,36.88
2022-08-26T10:12:11.482Z,38.22
2022-08-26T10:17:24.570Z,40.87
2022-08-26T10:19:57.975Z,38.74
2022-08-26T10:22:31.411Z,40.11
2022-08-26T10:25:04.747Z,41.21
2022-08-26T10:27:41.465Z,40.01
2022-08-26T10:30:21.811Z,39.22
2022-08-26T10:32:56.767Z,40.86
2022-08-26T10:35:26.985Z,40.32
2022-08-26T10:37:57.804Z,39.96
2022-08-26T10:40:28.460Z,38.18
2022-08-26T10:43:07.223Z,38.45
2022-08-26T10:45:42.968Z,39.40
2022-08-26T10:48:18.365Z,39.75
2022-08-26T10:50:49.183Z,39.20
2022-08-26T10:53:24.911Z,41.03
2022-08-26T10:56:00.526Z,40.68
2022-08-26T10:58:39.139Z,42.14
2022-08-26T11:01:33.093Z,42.42
2022-08-26T11:04:12.455Z,41.47
2022-08-26T11:06:41.941Z,40.69
2022-08-26T11:09:13.203Z,39.10
2022-08-26T11:11:51.865Z,36.99
2022-08-26T11:14:53.629Z,36.96
2022-08-26T11:17:57.376Z,35.34
2022-08-26T11:20:41.531Z,37.27
2022-08-26T11:23:50.332Z,37.89
2022-08-26T11:26:35.831Z,37.81
2022-08-26T11:29:13.498Z,40.70
2022-08-26T11:31:58.552Z,42.43
2022-08-26T11:34:55.163Z,39.69
2022-08-26T11:37:32.965Z,40.39
2022-08-26T11:40:04.558Z,40.47
2022-08-26T11:42:40.920Z,40.79
2022-08-26T11:45:20.065Z,39.57
2022-08-26T11:47:49.366Z,39.60
2022-08-26T11:50:20.667Z,40.29
2022-08-26T11:52:54.410Z,38.71
2022-08-26T11:55:24.074Z,38.21
2022-08-26T11:57:55.495Z,39.50
2022-08-26T12:00:25.896Z,40.10
2022-08-26T12:02:57.054Z,38.76
2022-08-26T12:05:31.419Z,39.76
2022-08-26T12:08:08.019Z,39.96
2022-08-26T12:10:37.739Z,39.46
2022-08-26T12:13:10.557Z,38.15
2022-08-26T12:15:38.480Z,38.14
2022-08-26T12:18:28.694Z,38.37
2022-08-26T12:21:03.172Z,40.21
2022-08-26T12:23:45.987Z,38.83
2022-08-26T12:26:23.934Z,39.11
2022-08-26T12:28:57.520Z,40.12
2022-08-26T12:31:31.456Z,40.08
2022-08-26T12:34:02.435Z,41.61
2022-08-26T12:36:33.283Z,42.01
2022-08-26T12:39:11.147Z,41.50
2022-08-26T12:41:48.552Z,39.79
2022-08-26T12:44:54.324Z,40.10
2022-08-26T12:47:41.888Z,38.43
2022-08-26T12:50:19.066Z,40.67
2022-08-26T12:52:56.504Z,42.24
2022-08-26T12:55:36.371Z,41.72
2022-08-26T12:58:15.078Z,39.44
2022-08-26T13:00:45.220Z,39.04
2022-08-26T13:03:38.264Z,40.61
2022-08-26T13:06:18.451Z,39.59
2022-08-26T13:08:47.533Z,39.52
2022-08-26T13:11:20.292Z,39.13
2022-08-26T13:13:51.621Z,39.09
2022-08-26T13:16:20.528Z,40.56
2022-08-26T13:18:49.895Z,40.61
2022-08-26T13:21:20.530Z,40.19
2022-08-26T13:23:51.112Z,39.25
2022-08-26T13:26:21.475Z,38.09
2022-08-26T13:28:59.158Z,38.80
2022-08-26T13:31:32.411Z,38.50
2022-08-26T13:34:07.935Z,39.41
2022-08-26T13:36:35.966Z,39.91
2022-08-26T13:39:08.490Z,41.10
2022-08-26T13:41:38.230Z,41.31
2022-08-26T13:44:08.265Z,42.77
2022-08-26T13:46:39.471Z,42.70
2022-08-26T13:49:08.207Z,42.59
2022-08-26T13:51:41.712Z,42.88
2022-08-26T13:54:10.224Z,42.90
2022-08-26T13:56:39.622Z,41.78
2022-08-26T13:59:07.880Z,43.02
2022-08-26T14:01:37.911Z,43.00
2022-08-26T14:04:05.829Z,42.67
2022-08-26T14:06:36.657Z,42.82
2022-08-26T14:09:06.272Z,42.55
2022-08-26T14:11:50.618Z,41.77
2022-08-26T14:14:26.874Z,41.14
2022-08-26T14:16:59.226Z,41.33
2022-08-26T14:19:29.612Z,41.70
2022-08-26T14:22:01.749Z,41.36
2022-08-26T14:24:29.938Z,43.20
2022-08-26T14:26:58.518Z,42.05
2022-08-26T14:29:27.835Z,41.88
2022-08-26T14:31:58.690Z,42.63
2022-08-26T14:34:29.675Z,42.69
2022-08-26T14:36:57.715Z,43.17
2022-08-26T14:39:37.377Z,42.31
2022-08-26T14:42:05.703Z,41.97
2022-08-26T14:44:35.464Z,43.06
2022-08-26T14:47:07.875Z,43.41
2022-08-26T14:49:37.771Z,44.66
2022-08-26T14:52:08.535Z,43.12
2022-08-26T14:54:36.892Z,43.20
2022-08-26T14:57:09.642Z,43.53
2022-08-26T14:59:41.655Z,42.77
2022-08-26T15:02:13.982Z,42.74
2022-08-26T15:04:58.742Z,42.66
2022-08-26T15:07:29.205Z,45.04
2022-08-26T15:09:59.213Z,44.32
2022-08-26T15:12:27.892Z,43.69
2022-08-26T15:14:57.192Z,43.41
2022-08-26T15:17:25.275Z,44.14
2022-08-26T15:19:53.464Z,43.57
2022-08-26T15:22:21.614Z,42.92
2022-08-26T15:24:51.828Z,43.32
2022-08-26T15:27:22.277Z,43.26
2022-08-26T15:29:50.616Z,44.03
2022-08-26T15:32:20.839Z,43.89
2022-08-26T15:34:49.971Z,43.64
2022-08-26T15:37:20.605Z,44.12
2022-08-26T15:39:49.137Z,43.51
2022-08-26T15:42:17.211Z,43.11
2022-08-26T15:44:45.696Z,43.50
2022-08-26T15:47:14.058Z,43.56
2022-08-26T15:49:43.502Z,44.40
2022-08-26T15:52:11.888Z,45.55
2022-08-26T15:54:39.935Z,50.11
2022-08-26T15:57:11.460Z,52.34
2022-08-26T15:59:43.178Z,55.93
2022-08-26T16:02:11.384Z,59.89
2022-08-26T16:04:39.674Z,66.26
2022-08-26T16:07:09.201Z,67.08
2022-08-26T16:09:37.469Z,66.42
2022-08-26T16:12:05.938Z,66.33
2022-08-26T16:14:34.515Z,69.09
2022-08-26T16:17:02.499Z,73.20
2022-08-26T16:19:30.571Z,74.88
2022-08-26T16:21:58.532Z,75.99
2022-08-26T16:24:30.550Z,76.46
2022-08-26T16:26:59.081Z,73.45
2022-08-26T16:29:27.365Z,74.45
2022-08-26T16:31:57.595Z,72.68
2022-08-26T16:34:25.617Z,74.23
2022-08-26T16:36:53.666Z,79.21
2022-08-26T16:39:21.699Z,78.13
2022-08-26T16:41:51.544Z,80.75
2022-08-26T16:44:19.573Z,81.70
2022-08-26T16:46:48.036Z,78.75
2022-08-26T16:49:19.583Z,77.21
2022-08-26T16:51:50.593Z,78.28
2022-08-26T16:54:18.862Z,74.78
2022-08-26T16:56:46.830Z,77.17
2022-08-26T16:59:16.161Z,81.61
2022-08-26T17:01:44.206Z,82.58
2022-08-26T17:04:12.456Z,81.40
2022-08-26T17:06:41.256Z,83.64
2022-08-26T17:09:09.779Z,80.76
2022-08-26T17:11:37.962Z,81.34
2022-08-26T17:14:08.332Z,77.60
2022-08-26T17:16:38.778Z,75.97
2022-08-26T17:19:09.155Z,71.69
2022-08-26T17:21:38.170Z,68.61
2022-08-26T17:24:07.259Z,70.72
2022-08-26T17:26:37.936Z,71.69
2022-08-26T17:29:07.289Z,71.05
2022-08-26T17:31:35.365Z,69.05
2022-08-26T17:34:11.151Z,70.25
2022-08-26T17:36:40.848Z,71.42
2022-08-26T17:39:11.596Z,70.72
2022-08-26T17:41:39.569Z,71.87
2022-08-26T17:44:08.082Z,70.40
2022-08-26T17:46:38.429Z,71.73
2022-08-26T17:49:08.369Z,76.28
2022-08-26T17:51:36.369Z,76.99
2022-08-26T17:54:04.688Z,81.72
2022-08-26T17:56:32.571Z,80.43
2022-08-26T17:59:02.350Z,81.49
2022-08-26T18:01:34.789Z,83.07
2022-08-26T18:04:04.622Z,84.90
2022-08-26T18:06:35.686Z,87.16
2022-08-26T18:09:04.424Z,89.89
2022-08-26T18:11:32.819Z,90.44
2022-08-26T18:14:01.865Z,88.50
2022-08-26T18:16:32.319Z,85.53
2022-08-26T18:19:02.200Z,85.85
2022-08-26T18:21:30.378Z,86.18
2022-08-26T18:24:00.194Z,86.80
2022-08-26T18:26:31.111Z,86.60
2022-08-26T18:28:59.946Z,86.00
2022-08-26T18:31:28.044Z,85.39
2022-08-26T18:33:56.479Z,91.95
2022-08-26T18:36:26.170Z,99.26
2022-08-26T18:38:57.326Z,97.88
2022-08-26T18:41:28.800Z,93.39
2022-08-26T18:43:57.173Z,89.78
2022-08-26T18:46:27.938Z,87.19
2022-08-26T18:48:57.088Z,88.44
2022-08-26T18:51:27.863Z,89.65
2022-08-26T18:53:55.759Z,86.44
2022-08-26T18:56:29.073Z,87.54
2022-08-26T18:58:59.881Z,89.04
2022-08-26T19:01:29.716Z,88.83
2022-08-26T19:03:58.293Z,86.94
2022-08-26T19:06:27.036Z,88.89
2022-08-26T19:08:55.788Z,88.42
2022-08-26T19:11:31.610Z,89.90
2022-08-26T19:14:06.414Z,89.99
2022-08-26T19:16:34.681Z,88.59
2022-08-26T19:19:02.831Z,86.61
2022-08-26T19:21:34.524Z,88.86
2022-08-26T19:24:09.275Z,89.18
2022-08-26T19:26:38.884Z,87.32
2022-08-26T19:29:08.278Z,85.52
2022-08-26T19:31:36.461Z,84.36
2022-08-26T19:34:05.322Z,84.42
2022-08-26T19:36:34.229Z,84.08
2022-08-26T19:39:05.431Z,83.54
2022-08-26T19:41:38.004Z,83.63
2022-08-26T19:44:10.142Z,86.66
2022-08-26T19:49:11.812Z,88.31
2022-08-26T19:51:39.882Z,88.18
2022-08-26T19:54:07.822Z,88.74
2022-08-26T19:56:36.554Z,89.44
2022-08-26T19:59:04.598Z,88.32
2022-08-26T20:01:33.855Z,87.35
2022-08-26T20:04:04.849Z,88.16
2022-08-26T20:06:32.810Z,88.44
2022-08-26T20:09:00.679Z,89.06
2022-08-26T20:11:29.379Z,87.35
2022-08-26T20:13:59.692Z,87.26
2022-08-26T20:16:27.688Z,87.45
2022-08-26T20:19:14.338Z,86.63
2022-08-26T20:21:42.947Z,87.69
2022-08-26T20:24:13.865Z,86.70
2022-08-26T20:26:44.063Z,85.90
2022-08-26T20:29:13.892Z,88.02
2022-08-26T20:31:43.991Z,87.11
2022-08-26T20:34:18.939Z,87.05
2022-08-26T20:36:48.475Z,85.93
2022-08-26T20:39:17.595Z,85.33
2022-08-26T20:41:45.678Z,85.77
2022-08-26T20:44:16.682Z,85.47
2022-08-26T20:46:44.847Z,84.90
2022-08-26T20:49:13.233Z,84.60
2022-08-26T20:51:43.812Z,86.57
2022-08-26T20:54:13.076Z,85.65
2022-08-26T20:56:41.422Z,87.65
2022-08-26T20:59:09.665Z,96.66
2022-08-26T21:01:42.447Z,97.00
2022-08-26T21:04:13.010Z,94.88
2022-08-26T21:06:52.112Z,92.36
2022-08-26T21:09:20.667Z,89.30
2022-08-26T21:11:49.907Z,87.62
2022-08-26T21:14:19.013Z,88.42
2022-08-26T21:16:47.789Z,88.64
2022-08-26T21:19:18.571Z,87.91
2022-08-26T21:21:49.333Z,87.54
2022-08-26T21:24:17.575Z,86.90
2022-08-26T21:26:45.593Z,86.48
2022-08-26T21:29:14.174Z,86.04
2022-08-26T21:31:46.372Z,85.54
2022-08-26T21:34:15.310Z,85.52
2022-08-26T21:36:43.294Z,86.02
2022-08-26T21:39:12.895Z,85.58
2022-08-26T21:41:42.223Z,85.40
2022-08-26T21:44:14.225Z,86.13
2022-08-26T21:46:46.722Z,87.24
2022-08-26T21:49:16.704Z,87.44
2022-08-26T21:51:46.753Z,86.65
2022-08-26T21:54:17.416Z,87.05
2022-08-26T21:56:47.149Z,87.36
2022-08-26T21:59:17.543Z,86.10
2022-08-26T22:01:48.104Z,87.22
2022-08-26T22:04:18.801Z,88.96
2022-08-26T22:06:48.757Z,89.38
2022-08-26T22:09:19.848Z,89.63
2022-08-26T22:11:48.477Z,88.57
2022-08-26T22:14:21.971Z,87.47
2022-08-26T22:16:51.056Z,87.13
2022-08-26T22:19:20.011Z,87.16
2022-08-26T22:21:50.337Z,88.47
2022-08-26T22:24:24.686Z,88.11
2022-08-26T22:26:52.999Z,87.28
2022-08-26T22:29:21.015Z,86.69
2022-08-26T22:31:51.410Z,86.50
2022-08-26T22:34:21.065Z,87.76
2022-08-26T22:36:50.377Z,87.50
2022-08-26T22:39:25.341Z,87.69
2022-08-26T22:41:54.125Z,87.73
2022-08-26T22:44:23.154Z,88.68
2022-08-26T22:46:54.240Z,89.48
2022-08-26T22:49:22.559Z,90.09
2022-08-26T22:51:51.179Z,88.82
2022-08-26T22:54:20.352Z,87.47
2022-08-26T22:56:48.622Z,87.57
2022-08-26T22:59:16.775Z,87.08
2022-08-26T23:01:46.393Z,87.00
2022-08-26T23:04:14.547Z,86.75
2022-08-26T23:06:47.541Z,86.89
2022-08-26T23:09:20.078Z,86.82
2022-08-26T23:11:49.895Z,86.99
2022-08-26T23:14:20.193Z,87.66
2022-08-26T23:16:48.497Z,90.10
2022-08-26T23:19:18.607Z,92.58
2022-08-26T23:21:46.790Z,92.12
2022-08-26T23:24:15.080Z,91.98
2022-08-26T23:26:45.506Z,91.91
2022-08-26T23:29:15.531Z,89.57
2022-08-26T23:31:46.013Z,90.40
2022-08-26T23:34:36.084Z,89.64
2022-08-26T23:37:06.213Z,89.52
2022-08-26T23:39:38.135Z,89.59
2022-08-26T23:42:10.826Z,91.78
2022-08-26T23:44:38.835Z,89.95
2022-08-26T23:47:07.409Z,89.00
2022-08-26T23:49:36.606Z,89.17
2022-08-26T23:52:23.386Z,89.41
2022-08-26T23:54:52.360Z,90.23
2022-08-26T23:57:23.959Z,90.04
2022-08-26T23:59:52.396Z,90.21
